EKFS weather

Vøjstrup Glider Field
Vøjstrup, Central Jutland, Denmark

Public forecast

Using degrees Celsius for public forecast. Weather courtesy of forecast.io.

METAR (pilot weather report)

Closest report is Odense Airport, 14.4 nm (26.7 km) NNE. Retrieved 2019/09/23 06:20 UTC (0 seconds ago):

EKOD 230620Z 10013KT 080V140 9999 BKN011 14/13 Q1015

TAF (pilot weather forecast)

Forecast is more than 12 hours old.

Closest forecast is Sønderborg Airport, 22.1 nm (41.0 km) SW. Retrieved 2016/01/27 09:03 UTC (4 years ago):

TAF TAF EKSB 270856Z 2709/2721 23022KT 5000 -RA BR BKN008 TEMPO 2709/2721 24025G40KT 2000 RADZ BKN004